Time;durP1;ratioP1;P1;durP2;ratioP2;P2;SDS_P1;SDS_P2;PMS_P1;PMS_P2;Temp;Humidity;BMP_temperature;BMP_pressure;BME280_temperature;BME280_humidity;BME280_pressure;Samples;Min_cycle;Max_cycle;Signal;HPM_P1;HPM_P2
2021/10/10 00:00:27;;;;;;;22.98;16.60;;;;;;;3.89;100.00;96921.28;1025152;28;20090;-50
2021/10/10 00:00:58;;;;;;;23.80;17.25;;;;;;;3.91;100.00;96921.25;1029174;28;20633;-51
2021/10/10 00:01:28;;;;;;;29.15;17.83;;;;;;;3.91;100.00;96921.25;1036716;28;20032;-51
2021/10/10 00:01:59;;;;;;;26.58;17.52;;;;;;;3.91;100.00;96918.66;1032693;28;20086;-51
2021/10/10 00:02:30;;;;;;;27.05;16.90;;;;;;;3.90;100.00;96924.72;1036567;28;20022;-51
2021/10/10 00:03:01;;;;;;;22.10;16.63;;;;;;;3.87;100.00;96930.00;1036324;28;20278;-49
2021/10/10 00:03:31;;;;;;;24.80;17.15;;;;;;;3.84;100.00;96923.16;1032329;28;20082;-51
2021/10/10 00:04:02;;;;;;;23.42;16.58;;;;;;;3.84;100.00;96923.16;1028954;28;20091;-51
2021/10/10 00:04:33;;;;;;;23.13;16.52;;;;;;;3.84;100.00;96925.75;1021132;29;20019;-50
2021/10/10 00:05:05;;;;;;;27.65;17.48;;;;;;;3.82;100.00;96924.94;1021389;29;20087;-51
2021/10/10 00:05:35;;;;;;;25.85;16.92;;;;;;;3.81;100.00;96927.56;1025340;28;20333;-51
2021/10/10 00:06:06;;;;;;;25.15;17.52;;;;;;;3.81;100.00;96930.16;1025520;28;20271;-50
2021/10/10 00:06:36;;;;;;;24.15;17.23;;;;;;;3.79;100.00;96926.75;1028965;28;20089;-50
2021/10/10 00:07:07;;;;;;;23.73;16.73;;;;;;;3.78;100.00;96927.69;1029012;28;20071;-50
2021/10/10 00:07:41;;;;;;;24.27;16.85;;;;;;;3.77;100.00;96928.56;1028980;28;20051;-50
2021/10/10 00:08:11;;;;;;;29.80;18.02;;;;;;;3.77;100.00;96932.00;1033411;28;20018;-51
2021/10/10 00:08:42;;;;;;;25.20;17.75;;;;;;;3.75;100.00;96928.59;1033275;28;20266;-50
2021/10/10 00:09:13;;;;;;;24.55;17.60;;;;;;;3.73;100.00;96932.97;1032839;28;20494;-51
2021/10/10 00:09:43;;;;;;;24.75;17.08;;;;;;;3.72;100.00;96933.00;1028773;28;20143;-50
2021/10/10 00:10:14;;;;;;;25.30;17.42;;;;;;;3.69;100.00;96929.59;1024837;28;20027;-50
2021/10/10 00:10:45;;;;;;;24.30;17.33;;;;;;;3.69;100.00;96933.94;1029054;28;20023;-50
2021/10/10 00:11:15;;;;;;;24.00;17.02;;;;;;;3.70;100.00;96933.06;1028728;28;20031;-50
2021/10/10 00:11:46;;;;;;;23.80;18.27;;;;;;;3.69;100.00;96934.78;1037124;28;20026;-51
2021/10/10 00:12:17;;;;;;;24.70;16.77;;;;;;;3.68;100.00;96940.03;1036570;28;20026;-50
2021/10/10 00:12:48;;;;;;;27.67;18.05;;;;;;;3.70;100.00;96933.91;1032682;28;20306;-50
2021/10/10 00:13:18;;;;;;;26.95;16.75;;;;;;;3.71;100.00;96939.94;1024755;29;20042;-51
2021/10/10 00:13:49;;;;;;;26.40;18.05;;;;;;;3.69;100.00;96932.19;1021015;29;20044;-50
2021/10/10 00:14:20;;;;;;;23.63;17.52;;;;;;;3.65;100.00;96933.19;1024465;28;20023;-50
2021/10/10 00:14:53;;;;;;;28.95;18.08;;;;;;;3.64;100.00;96939.28;1025224;28;20035;-51
2021/10/10 00:15:24;;;;;;;28.90;19.10;;;;;;;3.62;100.00;96930.69;1033287;28;20595;-52
2021/10/10 00:15:54;;;;;;;22.38;16.17;;;;;;;3.61;100.00;96931.56;1032934;28;20269;-51
2021/10/10 00:16:25;;;;;;;28.20;18.67;;;;;;;3.60;100.00;96936.78;1024437;28;20143;-51
2021/10/10 00:16:56;;;;;;;24.75;18.17;;;;;;;3.58;100.00;96939.41;1025003;29;20043;-51
2021/10/10 00:17:27;;;;;;;24.33;17.88;;;;;;;3.56;100.00;96936.00;1028813;28;20026;-52
2021/10/10 00:17:57;;;;;;;29.50;18.35;;;;;;;3.56;100.00;96938.59;1028861;28;20086;-50
2021/10/10 00:18:28;;;;;;;26.38;18.50;;;;;;;3.58;100.00;96938.56;1024781;28;20043;-53
2021/10/10 00:18:59;;;;;;;26.65;18.58;;;;;;;3.56;100.00;96933.44;1032364;28;20006;-50
2021/10/10 00:19:29;;;;;;;28.60;18.70;;;;;;;3.56;100.00;96935.19;1024865;29;20169;-49
2021/10/10 00:20:00;;;;;;;25.25;18.23;;;;;;;3.55;100.00;96936.94;1028880;28;20452;-51
2021/10/10 00:20:31;;;;;;;24.98;18.73;;;;;;;3.53;100.00;96940.44;1029362;28;20042;-50
2021/10/10 00:21:02;;;;;;;29.60;17.98;;;;;;;3.53;100.00;96937.84;1025388;29;20669;-51
2021/10/10 00:21:32;;;;;;;25.85;18.10;;;;;;;3.50;100.00;96942.22;1025756;28;20098;-51
2021/10/10 00:22:03;;;;;;;28.30;18.58;;;;;;;3.50;100.00;96942.22;1025437;29;20023;-50
2021/10/10 00:22:34;;;;;;;29.30;18.75;;;;;;;3.49;100.00;96937.06;1029401;28;20021;-50
2021/10/10 00:23:04;;;;;;;27.25;18.45;;;;;;;3.49;100.00;96937.06;1029260;28;20204;-51
2021/10/10 00:23:35;;;;;;;26.63;17.48;;;;;;;3.47;100.00;96941.44;1030131;28;20109;-50
2021/10/10 00:24:06;;;;;;;32.00;19.25;;;;;;;3.45;100.00;96933.72;1033504;28;20163;-50
2021/10/10 00:24:36;;;;;;;28.02;19.13;;;;;;;3.44;100.00;96937.19;1029194;28;20022;-51
2021/10/10 00:25:08;;;;;;;29.73;18.83;;;;;;;3.42;100.00;96938.13;1024850;28;20020;-49
2021/10/10 00:25:38;;;;;;;26.98;19.02;;;;;;;3.41;100.00;96937.28;1024694;29;20418;-51
2021/10/10 00:26:09;;;;;;;27.45;18.60;;;;;;;3.42;100.00;96945.91;1021120;28;20271;-50
2021/10/10 00:26:40;;;;;;;26.40;19.92;;;;;;;3.42;100.00;96943.31;1028642;28;20030;-50
2021/10/10 00:27:10;;;;;;;28.27;19.85;;;;;;;3.43;100.00;96938.06;1033469;28;20454;-52
2021/10/10 00:27:41;;;;;;;30.25;18.85;;;;;;;3.43;100.00;96945.84;1029479;28;20266;-51
2021/10/10 00:28:12;;;;;;;25.73;18.90;;;;;;;3.42;100.00;96938.97;1029968;28;20095;-51
2021/10/10 00:28:42;;;;;;;27.25;19.13;;;;;;;3.42;100.00;96938.13;1025267;29;20098;-49
2021/10/10 00:29:16;;;;;;;32.67;19.55;;;;;;;3.41;100.00;96941.59;1029256;28;20117;-51
2021/10/10 00:29:46;;;;;;;28.10;19.40;;;;;;;3.39;100.00;96944.22;1021854;29;20027;-50
2021/10/10 00:30:23;;;;;;;27.48;20.13;;;;;;;3.39;100.00;96943.38;1026256;28;20305;-52
2021/10/10 00:30:56;;;;;;;29.33;20.05;;;;;;;3.40;100.00;96945.94;1026794;28;20108;-50
2021/10/10 00:31:27;;;;;;;28.65;19.50;;;;;;;3.40;100.00;96938.19;1029662;28;20265;-51
2021/10/10 00:31:59;;;;;;;27.17;19.08;;;;;;;3.37;100.00;96946.00;1030869;28;20270;-50
2021/10/10 00:32:30;;;;;;;27.00;20.77;;;;;;;3.35;100.00;96942.63;1034862;28;20110;-52
2021/10/10 00:33:00;;;;;;;30.75;20.30;;;;;;;3.35;100.00;96941.78;1033111;28;20284;-51
2021/10/10 00:33:31;;;;;;;31.13;20.38;;;;;;;3.35;100.00;96942.63;1029669;28;20054;-51
2021/10/10 00:34:02;;;;;;;28.55;20.45;;;;;;;3.36;100.00;96941.75;1025638;29;20027;-50
2021/10/10 00:34:33;;;;;;;28.95;20.58;;;;;;;3.35;100.00;96940.03;1026252;28;20023;-50
2021/10/10 00:35:04;;;;;;;33.78;20.50;;;;;;;3.34;100.00;96945.25;1025472;28;20341;-50
2021/10/10 00:35:34;;;;;;;31.98;19.83;;;;;;;3.34;100.00;96940.06;1029960;28;20105;-49
2021/10/10 00:36:05;;;;;;;30.75;22.05;;;;;;;3.32;100.00;96940.09;1033604;28;20304;-51
2021/10/10 00:36:35;;;;;;;30.70;20.58;;;;;;;3.33;100.00;96944.41;1025983;28;20059;-50
2021/10/10 00:37:06;;;;;;;29.00;19.88;;;;;;;3.33;100.00;96943.56;1029434;28;20051;-51
2021/10/10 00:37:37;;;;;;;26.40;18.88;;;;;;;3.33;100.00;96943.56;1021421;29;20079;-50
2021/10/10 00:38:08;;;;;;;31.73;20.13;;;;;;;3.33;100.00;96938.38;1025618;29;20070;-51
2021/10/10 00:38:39;;;;;;;35.03;20.02;;;;;;;3.33;100.00;96941.81;1021420;29;20508;-50
2021/10/10 00:39:11;;;;;;;27.23;20.52;;;;;;;3.30;100.00;96939.28;1021577;29;20350;-51
2021/10/10 00:39:42;;;;;;;27.10;19.73;;;;;;;3.32;100.00;96937.50;1018158;29;20360;-50
2021/10/10 00:40:13;;;;;;;34.97;21.08;;;;;;;3.35;100.00;96941.78;1022381;28;20298;-50
2021/10/10 00:40:44;;;;;;;29.52;20.50;;;;;;;3.34;100.00;96943.53;1025908;28;20057;-50
2021/10/10 00:41:15;;;;;;;28.35;19.15;;;;;;;3.36;100.00;96935.69;1034072;28;20276;-50
2021/10/10 00:41:45;;;;;;;29.55;19.85;;;;;;;3.35;100.00;96941.78;1037677;28;20014;-51
2021/10/10 00:42:16;;;;;;;30.27;20.38;;;;;;;3.33;100.00;96938.38;1025444;29;20031;-51
2021/10/10 00:42:47;;;;;;;27.73;20.55;;;;;;;3.31;100.00;96930.63;1021508;29;20067;-51
2021/10/10 00:43:17;;;;;;;27.27;20.55;;;;;;;3.30;100.00;96940.16;1029237;28;20058;-53
2021/10/10 00:43:48;;;;;;;30.75;19.90;;;;;;;3.30;100.00;96936.69;1033522;28;20021;-51
2021/10/10 00:44:19;;;;;;;26.40;18.63;;;;;;;3.30;100.00;96934.09;1037699;28;20029;-50
2021/10/10 00:44:49;;;;;;;30.85;18.83;;;;;;;3.32;100.00;96937.50;1029854;28;20282;-50
2021/10/10 00:45:20;;;;;;;27.27;19.20;;;;;;;3.33;100.00;96940.97;1033683;28;20105;-51
2021/10/10 00:45:51;;;;;;;28.20;20.38;;;;;;;3.29;100.00;96935.84;1025445;29;20513;-51
2021/10/10 00:46:22;;;;;;;33.80;20.50;;;;;;;3.29;100.00;96935.84;1021689;29;20027;-51
2021/10/10 00:46:53;;;;;;;26.17;19.27;;;;;;;3.31;100.00;96936.66;1025640;29;20420;-50
2021/10/10 00:47:23;;;;;;;24.13;18.73;;;;;;;3.35;100.00;96941.78;1029658;28;20073;-51
2021/10/10 00:47:54;;;;;;;26.45;19.67;;;;;;;3.35;100.00;96936.59;1033399;28;20273;-50
2021/10/10 00:48:25;;;;;;;31.20;18.80;;;;;;;3.36;100.00;96933.09;1029347;28;20026;-51
2021/10/10 00:48:55;;;;;;;32.58;21.67;;;;;;;3.36;100.00;96933.97;1025530;29;20023;-50
2021/10/10 00:49:26;;;;;;;24.98;18.10;;;;;;;3.37;100.00;96933.06;1033187;28;20114;-52
2021/10/10 00:49:57;;;;;;;25.00;19.30;;;;;;;3.35;100.00;96937.44;1029512;28;20015;-50
2021/10/10 00:50:28;;;;;;;31.00;20.38;;;;;;;3.34;100.00;96935.75;1025576;29;20043;-51
2021/10/10 00:50:59;;;;;;;29.67;20.23;;;;;;;3.33;100.00;96939.22;1025921;28;20015;-49
2021/10/10 00:51:33;;;;;;;28.67;20.42;;;;;;;3.34;100.00;96940.06;1025947;28;20286;-51
2021/10/10 00:52:04;;;;;;;28.50;20.00;;;;;;;3.31;100.00;96936.66;1030477;28;20014;-51
2021/10/10 00:52:40;;;;;;;25.90;20.27;;;;;;;3.29;100.00;96935.00;1029188;28;20281;-50
2021/10/10 00:53:11;;;;;;;28.75;19.92;;;;;;;3.28;100.00;96931.56;1026882;28;20656;-51
2021/10/10 00:53:41;;;;;;;29.35;21.38;;;;;;;3.28;100.00;96938.47;1030145;28;20317;-50
2021/10/10 00:54:13;;;;;;;28.65;20.77;;;;;;;3.29;100.00;96933.25;1033766;28;20296;-51
2021/10/10 00:54:46;;;;;;;30.75;20.88;;;;;;;3.30;100.00;96934.97;1033800;28;20011;-51
2021/10/10 00:55:20;;;;;;;28.73;20.13;;;;;;;3.32;100.00;96932.31;1037522;28;20261;-50
2021/10/10 00:55:53;;;;;;;30.83;20.40;;;;;;;3.28;100.00;96929.00;1034406;28;20670;-50
2021/10/10 00:56:24;;;;;;;31.25;20.15;;;;;;;3.26;100.00;96927.31;1029453;28;20274;-52
2021/10/10 00:56:56;;;;;;;28.25;19.73;;;;;;;3.25;100.00;96930.81;1021435;29;20622;-50
2021/10/10 00:57:27;;;;;;;28.75;20.63;;;;;;;3.25;100.00;96929.06;1025243;29;20090;-51
2021/10/10 00:57:57;;;;;;;30.45;20.60;;;;;;;3.24;100.00;96924.75;1025491;29;20338;-50
2021/10/10 00:58:28;;;;;;;28.95;19.92;;;;;;;3.25;100.00;96926.47;1029284;28;20011;-50
2021/10/10 00:58:59;;;;;;;33.42;20.52;;;;;;;3.25;100.00;96929.06;1033814;28;20018;-49
2021/10/10 00:59:30;;;;;;;29.73;20.67;;;;;;;3.26;100.00;96932.50;1029837;28;20018;-52
2021/10/10 01:00:00;;;;;;;31.27;21.63;;;;;;;3.24;100.00;96929.94;1025003;29;20022;-50
2021/10/10 01:00:31;;;;;;;34.20;20.55;;;;;;;3.23;100.00;96928.25;1029247;28;20027;-50
2021/10/10 01:01:02;;;;;;;31.65;22.23;;;;;;;3.23;100.00;96935.16;1029305;28;20049;-50
2021/10/10 01:01:32;;;;;;;25.73;20.15;;;;;;;3.22;100.00;96926.53;1029515;28;20015;-50
2021/10/10 01:02:03;;;;;;;30.08;22.13;;;;;;;3.23;100.00;96928.25;1021355;29;20451;-51
2021/10/10 01:02:36;;;;;;;25.80;18.77;;;;;;;3.24;100.00;96934.28;1025344;29;20039;-50
2021/10/10 01:03:07;;;;;;;29.65;20.20;;;;;;;3.26;100.00;96930.75;1025586;28;20011;-50
2021/10/10 01:03:37;;;;;;;30.88;19.73;;;;;;;3.23;100.00;96930.84;1025332;28;20295;-51
2021/10/10 01:04:08;;;;;;;30.40;21.63;;;;;;;3.23;100.00;96932.56;1025810;28;20099;-51
2021/10/10 01:04:40;;;;;;;34.67;22.13;;;;;;;3.22;100.00;96930.88;1025076;29;20110;-51
2021/10/10 01:05:11;;;;;;;26.45;20.77;;;;;;;3.22;100.00;96931.72;1025710;28;20026;-51
2021/10/10 01:05:41;;;;;;;33.58;21.05;;;;;;;3.22;100.00;96936.06;1025173;29;20274;-50
2021/10/10 01:06:12;;;;;;;30.67;20.75;;;;;;;3.21;100.00;96926.56;1025614;28;20088;-50
2021/10/10 01:06:43;;;;;;;37.50;21.85;;;;;;;3.21;100.00;96932.63;1021146;29;20039;-50
2021/10/10 01:07:13;;;;;;;32.63;21.23;;;;;;;3.22;100.00;96930.88;1028815;28;20113;-50
2021/10/10 01:07:44;;;;;;;32.22;21.30;;;;;;;3.20;100.00;96930.91;1032481;28;20041;-50
2021/10/10 01:08:15;;;;;;;31.20;21.27;;;;;;;3.19;100.00;96924.03;1025084;29;20015;-51
2021/10/10 01:08:46;;;;;;;28.23;20.05;;;;;;;3.20;100.00;96927.47;1025635;28;20019;-51
2021/10/10 01:09:17;;;;;;;33.65;21.13;;;;;;;3.17;100.00;96927.53;1025182;28;20669;-51
2021/10/10 01:09:47;;;;;;;29.38;20.63;;;;;;;3.16;100.00;96926.69;1021953;28;20028;-51
2021/10/10 01:10:18;;;;;;;29.58;21.42;;;;;;;3.14;100.00;96920.72;1021324;29;20181;-50
2021/10/10 01:10:50;;;;;;;27.88;20.23;;;;;;;3.14;100.00;96930.22;1025496;28;20024;-51
2021/10/10 01:11:20;;;;;;;32.40;22.55;;;;;;;3.13;100.00;96926.75;1025529;28;20316;-50
2021/10/10 01:11:51;;;;;;;31.58;21.42;;;;;;;3.12;100.00;96927.66;1021281;29;20271;-51
2021/10/10 01:12:21;;;;;;;33.45;22.05;;;;;;;3.10;100.00;96925.13;1021183;29;20107;-51
2021/10/10 01:12:52;;;;;;;33.70;22.20;;;;;;;3.08;100.00;96923.47;1025201;29;20027;-51
2021/10/10 01:13:23;;;;;;;35.67;22.88;;;;;;;3.07;100.00;96925.19;1029687;28;20464;-52
2021/10/10 01:13:54;;;;;;;33.58;23.52;;;;;;;3.07;100.00;96929.50;1029654;28;20042;-50
2021/10/10 01:14:25;;;;;;;30.90;21.77;;;;;;;3.07;100.00;96926.91;1029250;28;20010;-51
2021/10/10 01:14:55;;;;;;;36.65;23.48;;;;;;;3.05;100.00;96924.38;1029724;28;20070;-50
2021/10/10 01:15:28;;;;;;;32.65;22.08;;;;;;;3.05;100.00;96923.53;1033526;28;20011;-50
2021/10/10 01:15:58;;;;;;;35.08;22.98;;;;;;;3.04;100.00;96929.56;1033511;28;20019;-52
2021/10/10 01:16:29;;;;;;;31.23;22.38;;;;;;;3.06;100.00;96925.22;1029403;28;20258;-51
2021/10/10 01:17:00;;;;;;;36.10;22.98;;;;;;;3.03;100.00;96928.75;1029899;28;20456;-50
2021/10/10 01:17:31;;;;;;;28.48;22.42;;;;;;;3.02;100.00;96927.06;1033267;28;20460;-52
2021/10/10 01:18:02;;;;;;;36.28;22.90;;;;;;;3.04;100.00;96929.56;1033690;28;20265;-51
2021/10/10 01:18:33;;;;;;;30.92;22.20;;;;;;;3.05;100.00;96926.13;1033278;28;20131;-50
2021/10/10 01:19:03;;;;;;;34.75;23.63;;;;;;;3.05;100.00;96929.53;1033361;28;20015;-51
2021/10/10 01:19:34;;;;;;;36.42;23.60;;;;;;;3.05;100.00;96928.69;1029369;28;20018;-50
2021/10/10 01:20:06;;;;;;;35.03;23.70;;;;;;;3.03;100.00;96923.56;1025281;29;20016;-51
2021/10/10 01:20:43;;;;;;;27.75;21.58;;;;;;;3.01;100.00;96917.56;1029335;28;20018;-52
2021/10/10 01:21:14;;;;;;;32.75;23.92;;;;;;;3.00;100.00;96923.63;1033527;28;20250;-51
2021/10/10 01:21:46;;;;;;;38.30;23.67;;;;;;;2.98;100.00;96920.22;1029355;28;20294;-50
2021/10/10 01:22:17;;;;;;;38.45;24.20;;;;;;;3.02;100.00;96923.59;1030569;28;20018;-50
2021/10/10 01:22:47;;;;;;;36.42;23.90;;;;;;;3.02;100.00;96916.69;1036870;28;20324;-51
2021/10/10 01:23:18;;;;;;;31.92;23.85;;;;;;;3.03;100.00;96918.38;1037371;28;20158;-50
2021/10/10 01:23:49;;;;;;;28.52;22.42;;;;;;;3.02;100.00;96921.00;1033499;28;20078;-50
2021/10/10 01:24:20;;;;;;;30.17;22.15;;;;;;;3.02;100.00;96916.69;1037670;28;20077;-50
2021/10/10 01:24:50;;;;;;;28.60;21.98;;;;;;;3.05;100.00;96923.53;1033094;28;20022;-50
2021/10/10 01:25:21;;;;;;;35.20;22.75;;;;;;;3.04;100.00;96912.31;1029343;28;20535;-52
2021/10/10 01:25:52;;;;;;;28.50;22.25;;;;;;;3.04;100.00;96917.50;1033238;28;20030;-50
2021/10/10 01:26:22;;;;;;;33.63;22.77;;;;;;;3.03;100.00;96912.34;1033481;28;20038;-51
2021/10/10 01:26:53;;;;;;;26.88;21.08;;;;;;;3.00;100.00;96915.84;1029200;28;20086;-51
2021/10/10 01:27:24;;;;;;;32.28;22.27;;;;;;;2.98;100.00;96909.88;1029122;28;20071;-49
2021/10/10 01:27:55;;;;;;;31.63;22.60;;;;;;;2.99;100.00;96910.75;1025680;28;20273;-50
2021/10/10 01:28:25;;;;;;;33.13;22.77;;;;;;;2.97;100.00;96913.38;1029445;28;20036;-52
2021/10/10 01:28:56;;;;;;;33.45;23.30;;;;;;;2.95;100.00;96911.69;1025378;29;20127;-51
2021/10/10 01:29:27;;;;;;;35.03;23.23;;;;;;;2.95;100.00;96911.69;1025773;28;20516;-51
2021/10/10 01:29:58;;;;;;;34.13;23.40;;;;;;;2.92;100.00;96918.63;1033846;28;20080;-50
2021/10/10 01:30:28;;;;;;;30.35;22.05;;;;;;;2.95;100.00;96911.69;1037784;28;20025;-50
2021/10/10 01:30:59;;;;;;;35.08;23.38;;;;;;;2.92;100.00;96905.69;1033272;28;20018;-50
2021/10/10 01:31:30;;;;;;;35.15;24.58;;;;;;;2.92;100.00;96913.47;1029151;28;20050;-50
2021/10/10 01:35:44;;;;;;;32.72;21.92;;;;;;;2.85;100.00;96916.22;1037537;28;20591;-50
2021/10/10 01:36:15;;;;;;;38.42;23.52;;;;;;;2.83;100.00;96916.25;1033688;28;20281;-51
2021/10/10 01:36:46;;;;;;;34.17;23.73;;;;;;;2.82;100.00;96913.75;1025544;29;20266;-51
2021/10/10 01:37:16;;;;;;;34.00;23.10;;;;;;;2.81;100.00;96917.19;1025398;29;20106;-51
2021/10/10 01:37:47;;;;;;;32.80;23.17;;;;;;;2.78;100.00;96919.84;1025295;29;20386;-50
2021/10/10 01:38:19;;;;;;;35.13;24.55;;;;;;;2.77;100.00;96913.84;1024951;29;20034;-51
2021/10/10 01:38:49;;;;;;;32.55;22.98;;;;;;;2.76;100.00;96912.16;1021542;28;20035;-50
2021/10/10 01:39:20;;;;;;;31.63;23.13;;;;;;;2.76;100.00;96912.16;1017518;29;20307;-52
2021/10/10 01:39:50;;;;;;;39.03;25.73;;;;;;;2.76;100.00;96916.44;1017481;29;20117;-50
2021/10/10 01:40:21;;;;;;;41.70;25.65;;;;;;;2.75;100.00;96918.19;1021417;29;20030;-49
2021/10/10 01:40:52;;;;;;;34.05;24.73;;;;;;;2.75;100.00;96919.94;1025842;28;20027;-52
2021/10/10 01:41:25;;;;;;;36.38;24.40;;;;;;;2.73;100.00;96918.22;1029632;28;20365;-50
2021/10/10 01:41:55;;;;;;;35.03;25.02;;;;;;;2.70;100.00;96914.88;1029416;28;20185;-50
2021/10/10 01:42:26;;;;;;;35.53;25.90;;;;;;;2.72;100.00;96913.09;1029231;28;20862;-51
2021/10/10 01:42:57;;;;;;;41.83;27.73;;;;;;;2.71;100.00;96914.00;1025313;29;20110;-50
2021/10/10 01:43:28;;;;;;;42.78;26.52;;;;;;;2.70;100.00;96915.72;1021670;28;20024;-50
2021/10/10 01:43:58;;;;;;;36.33;25.98;;;;;;;2.72;100.00;96913.09;1025395;28;20074;-51
2021/10/10 01:44:29;;;;;;;41.50;27.00;;;;;;;2.71;100.00;96916.56;1025188;29;20029;-50
2021/10/10 01:44:59;;;;;;;38.63;26.40;;;;;;;2.71;100.00;96924.34;1017388;29;20024;-49
2021/10/10 01:45:30;;;;;;;39.97;27.60;;;;;;;2.70;100.00;96926.09;1021075;29;20051;-52
2021/10/10 01:46:01;;;;;;;37.78;26.70;;;;;;;2.71;100.00;96924.34;1021975;28;20031;-49
2021/10/10 01:46:32;;;;;;;40.15;28.05;;;;;;;2.70;100.00;96920.03;1033500;28;20527;-50
2021/10/10 01:47:03;;;;;;;42.80;27.60;;;;;;;2.70;100.00;96923.50;1037174;28;20267;-51
2021/10/10 01:47:33;;;;;;;38.28;27.40;;;;;;;2.70;100.00;96927.81;1033106;28;20105;-50
2021/10/10 01:48:04;;;;;;;41.42;27.23;;;;;;;2.68;100.00;96920.09;1025470;29;20098;-50
2021/10/10 01:48:35;;;;;;;36.88;26.60;;;;;;;2.69;100.00;96918.34;1025250;28;20024;-50
2021/10/10 01:49:06;;;;;;;38.08;25.48;;;;;;;2.68;100.00;96921.81;1025167;28;20307;-51
2021/10/10 01:49:38;;;;;;;38.05;26.45;;;;;;;2.66;100.00;96921.00;1029592;28;20037;-51
2021/10/10 01:50:09;;;;;;;40.88;26.30;;;;;;;2.67;100.00;96926.16;1025339;28;20386;-50
2021/10/10 01:50:40;;;;;;;37.75;26.15;;;;;;;2.69;100.00;96918.34;1025346;29;20266;-51
2021/10/10 01:51:13;;;;;;;38.80;25.50;;;;;;;2.67;100.00;96915.78;1025265;29;20345;-50
2021/10/10 01:51:43;;;;;;;34.35;24.63;;;;;;;2.70;100.00;96923.50;1029580;28;20265;-50
2021/10/10 01:52:14;;;;;;;38.40;26.15;;;;;;;2.69;100.00;96916.59;1029232;28;20270;-51
2021/10/10 01:52:46;;;;;;;36.50;25.75;;;;;;;2.70;100.00;96917.44;1025524;28;20531;-52
2021/10/10 01:53:17;;;;;;;32.67;23.75;;;;;;;2.68;100.00;96914.06;1025673;28;20050;-51
2021/10/10 01:53:47;;;;;;;36.75;26.40;;;;;;;2.69;100.00;96923.53;1021708;29;20797;-51
2021/10/10 01:54:18;;;;;;;34.05;24.13;;;;;;;2.69;100.00;96921.78;1025210;29;20302;-50
2021/10/10 01:54:49;;;;;;;39.60;25.05;;;;;;;2.72;100.00;96913.97;1029110;28;20018;-51
2021/10/10 01:55:19;;;;;;;34.55;24.05;;;;;;;2.71;100.00;96914.00;1021507;29;20102;-50
2021/10/10 01:55:50;;;;;;;34.45;25.25;;;;;;;2.72;100.00;96916.53;1021188;29;20012;-51
2021/10/10 01:56:21;;;;;;;44.85;25.13;;;;;;;2.76;100.00;96916.44;1024977;28;20015;-52
2021/10/10 01:56:52;;;;;;;38.20;25.80;;;;;;;2.75;100.00;96914.78;1028843;28;20298;-51
2021/10/10 01:57:22;;;;;;;33.50;23.17;;;;;;;2.73;100.00;96912.22;1033446;28;20014;-49
2021/10/10 01:57:53;;;;;;;38.28;23.80;;;;;;;2.73;100.00;96917.38;1029294;28;20083;-50
2021/10/10 01:58:24;;;;;;;33.92;25.55;;;;;;;2.75;100.00;96915.63;1024822;29;20034;-50
2021/10/10 01:58:55;;;;;;;38.15;24.75;;;;;;;2.77;100.00;96913.84;1024960;29;20015;-51
2021/10/10 01:59:25;;;;;;;33.90;24.13;;;;;;;2.78;100.00;96905.19;1029025;28;20026;-50
2021/10/10 01:59:56;;;;;;;33.42;24.50;;;;;;;2.78;100.00;96910.38;1029122;28;20042;-51
2021/10/10 02:00:27;;;;;;;37.40;23.63;;;;;;;2.81;100.00;96914.63;1025067;28;20516;-51
2021/10/10 02:00:58;;;;;;;31.25;22.48;;;;;;;2.81;100.00;96910.28;1032987;28;20061;-52
2021/10/10 02:01:29;;;;;;;33.50;22.35;;;;;;;2.82;100.00;96911.16;1037481;28;20022;-51
2021/10/10 02:01:59;;;;;;;34.03;24.58;;;;;;;2.82;100.00;96909.41;1029274;28;20042;-50
2021/10/10 02:02:30;;;;;;;35.60;23.13;;;;;;;2.83;100.00;96905.91;1025147;29;20023;-51
2021/10/10 02:03:00;;;;;;;36.25;22.13;;;;;;;2.87;100.00;96906.69;1024955;28;20024;-50
2021/10/10 02:03:31;;;;;;;34.90;22.05;;;;;;;2.87;100.00;96907.56;1024925;29;20026;-52
2021/10/10 02:04:02;;;;;;;39.45;23.42;;;;;;;2.85;100.00;96904.16;1025107;29;20367;-50
2021/10/10 02:04:33;;;;;;;33.88;24.30;;;;;;;2.82;100.00;96904.22;1028966;28;20011;-50
2021/10/10 02:05:04;;;;;;;29.88;22.73;;;;;;;2.81;100.00;96909.44;1029032;28;20499;-52
2021/10/10 02:05:34;;;;;;;37.03;23.70;;;;;;;2.82;100.00;96900.81;1029304;28;20086;-51
2021/10/10 02:06:05;;;;;;;29.20;22.35;;;;;;;2.81;100.00;96896.50;1025149;29;20394;-51
2021/10/10 02:06:36;;;;;;;32.95;24.00;;;;;;;2.84;100.00;96907.63;1032912;28;20113;-51
2021/10/10 02:07:06;;;;;;;33.75;24.58;;;;;;;2.80;100.00;96903.41;1033172;28;20017;-51
2021/10/10 02:07:37;;;;;;;31.17;22.25;;;;;;;2.82;100.00;96899.06;1037104;28;20014;-50
2021/10/10 02:08:08;;;;;;;31.02;22.65;;;;;;;2.81;100.00;96904.25;1037249;28;20010;-51
2021/10/10 02:08:39;;;;;;;34.20;24.05;;;;;;;2.79;100.00;96899.13;1037143;28;20790;-50
2021/10/10 02:09:09;;;;;;;29.92;23.08;;;;;;;2.77;100.00;96905.22;1029016;28;20018;-51
2021/10/10 02:09:42;;;;;;;33.85;24.42;;;;;;;2.75;100.00;96905.25;1032739;28;20034;-50
2021/10/10 02:10:12;;;;;;;30.85;23.48;;;;;;;2.73;100.00;96901.88;1018207;29;20043;-50
2021/10/10 02:10:43;;;;;;;36.13;23.25;;;;;;;2.75;100.00;96905.25;1025072;29;20262;-50
2021/10/10 02:11:14;;;;;;;33.15;24.20;;;;;;;2.76;100.00;96904.38;1028833;28;20073;-50
2021/10/10 02:11:45;;;;;;;34.97;23.73;;;;;;;2.77;100.00;96906.06;1025097;29;20295;-51
2021/10/10 02:12:15;;;;;;;29.58;23.13;;;;;;;2.76;100.00;96906.97;1025006;29;20180;-52
2021/10/10 02:12:46;;;;;;;35.33;23.80;;;;;;;2.74;100.00;96903.56;1028885;28;20094;-49
2021/10/10 02:13:17;;;;;;;30.52;23.45;;;;;;;2.71;100.00;96901.06;1025073;28;20101;-50
2021/10/10 02:13:48;;;;;;;31.63;22.75;;;;;;;2.73;100.00;96904.44;1025385;28;20050;-50
2021/10/10 02:14:18;;;;;;;30.25;23.52;;;;;;;2.70;100.00;96904.50;1025262;28;20106;-50
2021/10/10 02:14:49;;;;;;;34.53;23.55;;;;;;;2.72;100.00;96900.16;1021167;29;20048;-51
2021/10/10 02:15:19;;;;;;;36.10;22.90;;;;;;;2.72;100.00;96897.56;1021358;29;20027;-51
2021/10/10 02:15:50;;;;;;;34.08;24.15;;;;;;;2.73;100.00;96901.88;1021288;29;20517;-50
2021/10/10 02:16:21;;;;;;;29.33;23.13;;;;;;;2.71;100.00;96899.31;1025497;28;20035;-50
2021/10/10 02:16:52;;;;;;;33.42;22.33;;;;;;;2.72;100.00;96902.75;1028772;28;20308;-52
2021/10/10 02:17:22;;;;;;;33.33;23.58;;;;;;;2.71;100.00;96895.88;1029023;28;20146;-51
2021/10/10 02:17:53;;;;;;;33.75;23.98;;;;;;;2.68;100.00;96894.22;1025196;29;20098;-50
2021/10/10 02:18:24;;;;;;;34.22;23.33;;;;;;;2.67;100.00;96896.84;1025550;28;20026;-51
2021/10/10 02:18:55;;;;;;;34.45;24.02;;;;;;;2.67;100.00;96902.03;1029383;28;20544;-50
2021/10/10 02:19:26;;;;;;;33.58;23.35;;;;;;;2.65;100.00;96903.78;1029099;28;20014;-51
2021/10/10 02:19:56;;;;;;;35.83;23.40;;;;;;;2.65;100.00;96896.03;1028877;28;20293;-50
2021/10/10 02:20:27;;;;;;;33.80;23.65;;;;;;;2.63;100.00;96896.06;1025379;29;20063;-51
2021/10/10 02:20:58;;;;;;;32.67;23.83;;;;;;;2.62;100.00;96896.09;1029356;28;20018;-49
2021/10/10 02:21:28;;;;;;;34.50;24.13;;;;;;;2.63;100.00;96890.03;1028889;28;20082;-50
2021/10/10 02:21:59;;;;;;;32.65;23.38;;;;;;;2.66;100.00;96902.88;1028678;28;20015;-49
2021/10/10 02:22:30;;;;;;;32.53;23.33;;;;;;;2.65;100.00;96902.03;1033045;28;20472;-51
2021/10/10 02:23:01;;;;;;;38.63;23.17;;;;;;;2.65;100.00;96898.63;1032849;28;20021;-50
2021/10/10 02:23:32;;;;;;;31.30;23.20;;;;;;;2.65;100.00;96901.22;1033143;28;20280;-51
2021/10/10 02:24:02;;;;;;;37.60;21.90;;;;;;;2.62;100.00;96896.94;1032974;28;20129;-50
2021/10/10 02:26:18;;;;;;;34.13;21.35;;;;;;;2.62;100.00;96893.50;1037289;28;20105;-50
2021/10/10 02:26:49;;;;;;;30.15;22.15;;;;;;;2.61;100.00;96894.38;1033091;28;20254;-50
2021/10/10 02:27:20;;;;;;;32.50;22.40;;;;;;;2.62;100.00;96896.09;1028721;28;20073;-50
2021/10/10 02:27:50;;;;;;;35.85;23.35;;;;;;;2.60;100.00;96897.88;1028664;28;20065;-51